createdAt,value
2019-04-11T00:01:36.089Z,6.44
2019-04-11T00:06:35.911Z,6.55
2019-04-11T00:11:42.770Z,6.96
2019-04-11T00:16:50.026Z,6.87
2019-04-11T00:21:59.405Z,6.98
2019-04-11T00:27:05.797Z,6.43
2019-04-11T00:32:13.713Z,6.87
2019-04-11T00:37:21.156Z,6.71
2019-04-11T00:42:30.387Z,6.76
2019-04-11T00:47:38.221Z,7.01
2019-04-11T00:52:44.072Z,7.13
2019-04-11T00:57:52.933Z,6.72
2019-04-11T01:02:59.928Z,6.32
2019-04-11T01:08:07.178Z,6.54
2019-04-11T01:13:14.251Z,6.70
2019-04-11T01:18:20.813Z,6.34
2019-04-11T01:23:29.165Z,6.21
2019-04-11T01:28:36.944Z,6.62
2019-04-11T01:33:44.644Z,6.28
2019-04-11T01:38:52.616Z,6.41
2019-04-11T01:44:03.433Z,6.15
2019-04-11T01:49:08.034Z,6.69
2019-04-11T01:54:15.230Z,6.56
2019-04-11T01:59:21.598Z,6.23
2019-04-11T02:04:30.041Z,6.49
2019-04-11T02:09:36.193Z,6.70
2019-04-11T02:14:44.017Z,6.65
2019-04-11T02:19:52.316Z,6.73
2019-04-11T02:24:59.150Z,6.80
2019-04-11T02:30:08.578Z,6.79
2019-04-11T02:35:15.214Z,7.23
2019-04-11T02:40:22.949Z,7.83
2019-04-11T02:45:42.973Z,7.75
2019-04-11T02:50:37.188Z,7.78
2019-04-11T02:55:43.817Z,7.79
2019-04-11T03:00:53.045Z,7.46
2019-04-11T03:05:58.221Z,8.21
2019-04-11T03:11:07.527Z,7.92
2019-04-11T03:16:24.699Z,8.21
2019-04-11T03:21:22.053Z,8.65
2019-04-11T03:26:29.088Z,8.63
2019-04-11T03:32:13.207Z,8.47
2019-04-11T03:42:04.823Z,8.44
2019-04-11T03:47:11.180Z,9.19
2019-04-11T03:52:05.202Z,9.18
2019-04-11T03:57:10.986Z,9.13
2019-04-11T04:02:20.311Z,8.99
2019-04-11T04:07:27.689Z,9.92
2019-04-11T04:12:34.167Z,9.90
2019-04-11T04:17:41.330Z,9.81
2019-04-11T04:22:49.734Z,9.41
2019-04-11T04:27:56.902Z,9.29
2019-04-11T04:33:02.872Z,10.02
2019-04-11T04:38:11.256Z,9.52
2019-04-11T04:43:18.574Z,9.67
2019-04-11T04:48:26.731Z,9.88
2019-04-11T04:53:33.055Z,9.36
2019-04-11T04:58:39.975Z,9.66
2019-04-11T05:03:46.776Z,9.62
2019-04-11T05:08:54.066Z,9.69
2019-04-11T05:14:02.933Z,10.30
2019-04-11T05:19:08.974Z,9.56
2019-04-11T05:24:16.800Z,10.24
2019-04-11T05:29:25.019Z,10.01
2019-04-11T05:34:31.728Z,9.82
2019-04-11T05:39:39.843Z,9.38
2019-04-11T05:44:47.095Z,9.91
2019-04-11T05:49:54.693Z,9.65
2019-04-11T05:55:02.929Z,9.69
2019-04-11T06:00:09.755Z,9.38
2019-04-11T06:05:19.338Z,8.91
2019-04-11T06:10:26.135Z,9.40
2019-04-11T06:15:33.313Z,9.08
2019-04-11T06:20:41.352Z,9.87
2019-04-11T06:25:49.261Z,9.28
2019-04-11T06:30:56.956Z,9.36
2019-04-11T06:36:04.601Z,8.68
2019-04-11T06:41:12.507Z,8.69
2019-04-11T06:46:20.803Z,8.99
2019-04-11T06:51:28.166Z,9.00
2019-04-11T06:56:34.935Z,8.49
2019-04-11T07:01:42.665Z,7.83
2019-04-11T07:06:50.323Z,7.77
2019-04-11T07:11:59.195Z,7.48
2019-04-11T07:17:07.987Z,7.89
2019-04-11T07:22:13.221Z,7.11
2019-04-11T07:27:20.166Z,6.92
2019-04-11T07:32:27.831Z,7.06
2019-04-11T07:37:34.149Z,6.97
2019-04-11T07:42:43.352Z,6.40
2019-04-11T07:47:50.421Z,5.09
2019-04-11T07:52:56.673Z,4.66
2019-04-11T07:58:04.525Z,4.85
2019-04-11T08:03:12.360Z,4.59
2019-04-11T08:08:21.443Z,3.98
2019-04-11T08:13:28.318Z,4.23
2019-04-11T08:18:35.193Z,3.73
2019-04-11T08:23:43.526Z,3.69
2019-04-11T08:28:59.591Z,3.25
2019-04-11T08:33:57.769Z,3.41
2019-04-11T08:39:05.434Z,3.20
2019-04-11T08:44:13.176Z,3.03
2019-04-11T08:49:21.568Z,2.93
2019-04-11T08:54:29.251Z,3.07
2019-04-11T08:59:35.840Z,3.63
2019-04-11T09:04:42.880Z,3.11
2019-04-11T09:09:51.514Z,3.56
2019-04-11T09:14:58.054Z,3.51
2019-04-11T09:20:05.728Z,3.31
2019-04-11T09:25:14.790Z,3.24
2019-04-11T09:30:21.373Z,3.51
2019-04-11T09:35:29.074Z,3.73
2019-04-11T09:40:36.857Z,3.71
2019-04-11T09:45:44.481Z,3.99
2019-04-11T09:50:53.194Z,3.71
2019-04-11T09:55:59.573Z,3.78
2019-04-11T10:01:08.051Z,3.71
2019-04-11T10:06:15.779Z,3.73
2019-04-11T10:11:22.019Z,3.76
2019-04-11T10:16:29.488Z,3.90
2019-04-11T10:21:37.516Z,3.77
2019-04-11T10:26:45.027Z,3.62
2019-04-11T10:31:52.897Z,3.79
2019-04-11T10:37:01.328Z,3.80
2019-04-11T10:42:08.498Z,3.89
2019-04-11T10:47:16.459Z,3.76
2019-04-11T10:52:22.609Z,3.83
2019-04-11T10:57:30.281Z,3.86
2019-04-11T11:02:37.937Z,3.76
2019-04-11T11:07:45.687Z,4.30
2019-04-11T11:12:53.777Z,3.56
2019-04-11T11:18:25.206Z,3.86
2019-04-11T11:23:12.624Z,3.76
2019-04-11T11:28:18.284Z,4.38
2019-04-11T11:33:26.601Z,4.12
2019-04-11T11:38:33.636Z,3.95
2019-04-11T11:43:41.264Z,4.14
2019-04-11T11:48:51.082Z,4.69
2019-04-11T11:53:57.361Z,4.22
2019-04-11T11:59:03.382Z,4.54
2019-04-11T12:04:11.285Z,4.82
2019-04-11T12:09:18.936Z,4.60
2019-04-11T12:14:27.563Z,5.34
2019-04-11T12:19:45.814Z,5.02
2019-04-11T12:24:42.800Z,4.78
2019-04-11T12:29:50.454Z,5.00
2019-04-11T12:34:56.025Z,5.13
2019-04-11T12:40:04.501Z,4.82
2019-04-11T12:45:12.942Z,4.67
2019-04-11T12:50:20.690Z,4.76
2019-04-11T12:55:28.317Z,4.50
2019-04-11T13:00:36.041Z,4.56
2019-04-11T13:05:45.100Z,4.47
2019-04-11T13:10:53.873Z,4.14
2019-04-11T13:16:11.438Z,3.93
2019-04-11T13:21:08.799Z,4.52
2019-04-11T13:26:16.944Z,4.19
2019-04-11T13:31:24.898Z,4.37
2019-04-11T13:36:32.677Z,4.07
2019-04-11T13:41:40.345Z,4.32
2019-04-11T13:46:47.976Z,4.42
2019-04-11T13:51:55.776Z,4.42
2019-04-11T13:57:03.530Z,4.24
2019-04-11T14:02:11.245Z,4.20
2019-04-11T14:07:18.833Z,4.41
2019-04-11T14:12:26.662Z,4.79
2019-04-11T14:17:34.347Z,4.25
2019-04-11T14:22:43.678Z,4.32
2019-04-11T14:27:49.785Z,4.20
2019-04-11T14:32:57.434Z,4.46
2019-04-11T14:38:05.081Z,4.19
2019-04-11T14:43:13.640Z,4.47
2019-04-11T14:48:20.328Z,4.34
2019-04-11T14:53:28.103Z,4.38
2019-04-11T14:58:35.922Z,4.60
2019-04-11T15:03:44.281Z,4.54
2019-04-11T15:08:50.953Z,4.66
2019-04-11T15:13:58.712Z,4.58
2019-04-11T15:19:06.632Z,4.54
2019-04-11T15:24:14.332Z,4.54
2019-04-11T15:29:22.152Z,4.88
2019-04-11T15:34:30.651Z,4.58
2019-04-11T15:39:44.318Z,4.86
2019-04-11T15:44:45.810Z,4.62
2019-04-11T15:49:53.638Z,4.76
2019-04-11T15:55:02.422Z,4.64
2019-04-11T16:00:08.456Z,4.37
2019-04-11T16:05:18.029Z,4.45
2019-04-11T16:10:25.749Z,4.45
2019-04-11T16:15:33.589Z,4.53
2019-04-11T16:20:41.308Z,4.27
2019-04-11T16:25:49.036Z,4.57
2019-04-11T16:30:56.828Z,4.36
2019-04-11T16:36:04.600Z,4.48
2019-04-11T16:41:13.087Z,4.86
2019-04-11T16:46:24.576Z,4.53
2019-04-11T16:51:31.060Z,4.40
2019-04-11T16:56:36.000Z,4.49
2019-04-11T17:01:43.906Z,4.45
2019-04-11T17:06:55.404Z,4.55
2019-04-11T17:11:58.784Z,4.28
2019-04-11T17:17:14.953Z,4.16
2019-04-11T17:22:13.942Z,7.45
2019-04-11T17:27:23.188Z,6.46
2019-04-11T17:32:29.132Z,4.16
2019-04-11T17:37:36.740Z,3.62
2019-04-11T17:42:44.565Z,3.85
2019-04-11T17:47:52.148Z,3.63
2019-04-11T17:52:59.836Z,3.49
2019-04-11T17:58:07.593Z,3.90
2019-04-11T18:03:15.384Z,3.68
2019-04-11T18:08:23.154Z,4.05
2019-04-11T18:13:31.704Z,3.65
2019-04-11T18:18:38.261Z,3.75
2019-04-11T18:23:49.890Z,4.05
2019-04-11T18:28:53.692Z,3.54
2019-04-11T18:34:02.524Z,3.73
2019-04-11T18:39:08.667Z,3.92
2019-04-11T18:44:18.213Z,3.99
2019-04-11T18:49:23.720Z,4.22
2019-04-11T18:54:31.490Z,4.04
2019-04-11T18:59:39.150Z,3.62
2019-04-11T19:04:46.836Z,4.12
2019-04-11T19:09:54.500Z,4.08
2019-04-11T19:15:02.105Z,3.87
2019-04-11T19:20:12.358Z,3.51
2019-04-11T19:25:12.038Z,3.60
2019-04-11T19:30:17.262Z,3.86
2019-04-11T19:35:24.878Z,4.12
2019-04-11T19:40:32.578Z,3.88
2019-04-11T19:45:40.336Z,3.87
2019-04-11T19:50:48.099Z,4.03
2019-04-11T19:55:55.831Z,4.12
2019-04-11T20:01:03.639Z,3.76
2019-04-11T20:06:13.264Z,3.82
2019-04-11T20:11:18.677Z,3.71
2019-04-11T20:16:26.404Z,3.79
2019-04-11T20:21:38.132Z,3.88
2019-04-11T20:26:41.271Z,3.91
2019-04-11T20:31:49.025Z,4.45
2019-04-11T20:36:57.087Z,4.20
2019-04-11T20:42:04.855Z,4.32
2019-04-11T20:47:12.728Z,4.60
2019-04-11T20:52:20.475Z,4.28
2019-04-11T20:57:28.252Z,4.18
2019-04-11T21:02:35.973Z,4.48
2019-04-11T21:07:43.821Z,4.30
2019-04-11T21:12:51.746Z,4.40
2019-04-11T21:17:59.939Z,4.21
2019-04-11T21:23:07.774Z,4.24
2019-04-11T21:28:15.537Z,4.34
2019-04-11T21:33:23.253Z,4.38
2019-04-11T21:38:31.436Z,4.32
2019-04-11T21:43:37.972Z,4.35
2019-04-11T21:48:45.728Z,4.49
2019-04-11T21:53:54.695Z,4.15
2019-04-11T21:59:02.305Z,4.28
2019-04-11T22:04:10.036Z,4.27
2019-04-11T22:09:17.761Z,4.01
2019-04-11T22:14:25.516Z,3.97
2019-04-11T22:19:33.679Z,3.97
2019-04-11T22:24:40.980Z,4.15
2019-04-11T22:29:48.699Z,3.92
2019-04-11T22:34:56.773Z,4.44
2019-04-11T22:40:03.754Z,4.47
2019-04-11T22:45:11.696Z,4.36
2019-04-11T22:50:19.300Z,4.89
2019-04-11T22:55:27.097Z,4.61
2019-04-11T23:00:35.027Z,4.41
2019-04-11T23:05:46.505Z,4.86
2019-04-11T23:10:49.868Z,4.87
2019-04-11T23:15:57.828Z,5.28
2019-04-11T23:21:05.604Z,4.76
2019-04-11T23:26:13.468Z,4.71
2019-04-11T23:31:21.183Z,4.97
2019-04-11T23:36:30.036Z,5.15
2019-04-11T23:41:37.781Z,5.17
2019-04-11T23:46:45.537Z,5.51
2019-04-11T23:51:55.659Z,6.05
2019-04-11T23:57:01.497Z,5.76
